createdAt,value
2023-05-18T00:00:05.883Z,100013.00
2023-05-18T00:02:32.748Z,100010.44
2023-05-18T00:05:02.449Z,100010.78
2023-05-18T00:07:34.454Z,100008.69
2023-05-18T00:10:02.014Z,100015.31
2023-05-18T00:12:28.992Z,100011.56
2023-05-18T00:14:55.774Z,100009.88
2023-05-18T00:17:22.572Z,100010.63
2023-05-18T00:19:50.550Z,100013.72
2023-05-18T00:22:20.333Z,100013.97
2023-05-18T00:24:47.945Z,100005.53
2023-05-18T00:27:15.209Z,100009.88
2023-05-18T00:29:41.957Z,100012.03
2023-05-18T00:32:08.686Z,100012.09
2023-05-18T00:34:35.543Z,100013.81
2023-05-18T00:37:02.491Z,100013.59
2023-05-18T00:39:29.250Z,100005.41
2023-05-18T00:41:56.081Z,100018.91
2023-05-18T00:44:22.824Z,100013.44
2023-05-18T00:46:50.350Z,100018.28
2023-05-18T00:49:17.774Z,100020.38
2023-05-18T00:51:45.842Z,100013.56
2023-05-18T00:54:12.564Z,100018.13
2023-05-18T00:56:42.637Z,100019.53
2023-05-18T00:59:12.588Z,100022.25
2023-05-18T01:01:44.271Z,100014.22
2023-05-18T01:04:14.721Z,100020.47
2023-05-18T01:06:42.407Z,100019.97
2023-05-18T01:09:12.009Z,100020.75
2023-05-18T01:12:07.977Z,100022.50
2023-05-18T01:14:38.478Z,100021.94
2023-05-18T01:17:36.745Z,100027.69
2023-05-18T01:20:18.050Z,100028.06
2023-05-18T01:23:15.252Z,100034.03
2023-05-18T01:26:30.645Z,100033.38
2023-05-18T01:28:59.593Z,100029.63
2023-05-18T01:31:27.289Z,100030.34
2023-05-18T01:33:54.073Z,100035.38
2023-05-18T01:36:21.081Z,100030.59
2023-05-18T01:38:48.129Z,100025.69
2023-05-18T01:41:28.972Z,100035.47
2023-05-18T01:44:20.048Z,100036.91
2023-05-18T01:47:10.933Z,100037.00
2023-05-18T01:49:46.728Z,100039.63
2023-05-18T01:52:21.936Z,100038.88
2023-05-18T01:54:51.979Z,100034.81
2023-05-18T01:57:20.769Z,100040.03
2023-05-18T01:59:48.206Z,100035.91
2023-05-18T02:02:15.124Z,100039.44
2023-05-18T02:04:41.941Z,100035.34
2023-05-18T02:07:08.925Z,100039.09
2023-05-18T02:09:35.647Z,100042.97
2023-05-18T02:12:02.846Z,100043.28
2023-05-18T02:14:29.629Z,100043.31
2023-05-18T02:16:57.753Z,100046.44
2023-05-18T02:19:25.714Z,100049.69
2023-05-18T02:21:52.520Z,100042.47
2023-05-18T02:24:19.252Z,100054.41
2023-05-18T02:26:46.214Z,100050.00
2023-05-18T02:29:14.810Z,100043.06
2023-05-18T02:31:41.923Z,100048.00
2023-05-18T02:34:09.389Z,100044.13
2023-05-18T02:36:43.097Z,100041.59
2023-05-18T02:39:10.688Z,100046.81
2023-05-18T02:41:37.699Z,100043.91
2023-05-18T02:44:05.042Z,100034.50
2023-05-18T02:46:32.377Z,100046.06
2023-05-18T02:49:00.076Z,100033.84
2023-05-18T02:51:26.988Z,100037.06
2023-05-18T02:53:53.932Z,100043.34
2023-05-18T02:56:20.643Z,100039.59
2023-05-18T02:58:47.709Z,100033.19
2023-05-18T03:01:14.486Z,100036.06
2023-05-18T03:03:42.596Z,100046.31
2023-05-18T03:06:09.723Z,100038.00
2023-05-18T03:08:41.764Z,100044.09
2023-05-18T03:11:08.497Z,100035.53
2023-05-18T03:13:35.359Z,100033.84
2023-05-18T03:16:02.052Z,100027.06
2023-05-18T03:18:28.747Z,100028.66
2023-05-18T03:20:56.469Z,100029.13
2023-05-18T03:23:23.645Z,100037.09
2023-05-18T03:25:55.565Z,100024.50
2023-05-18T03:28:22.807Z,100032.97
2023-05-18T03:30:49.803Z,100028.38
2023-05-18T03:33:17.067Z,100029.97
2023-05-18T03:35:44.735Z,100031.13
2023-05-18T03:38:12.229Z,100031.31
2023-05-18T03:40:39.026Z,100028.53
2023-05-18T03:43:05.856Z,100035.59
2023-05-18T03:45:32.736Z,100026.25
2023-05-18T03:47:59.706Z,100040.50
2023-05-18T03:50:26.571Z,100036.41
2023-05-18T03:52:53.438Z,100025.50
2023-05-18T03:55:21.704Z,100033.19
2023-05-18T03:57:49.073Z,100046.31
2023-05-18T04:00:16.383Z,100040.31
2023-05-18T04:02:43.347Z,100040.44
2023-05-18T04:05:10.532Z,100043.09
2023-05-18T04:07:44.429Z,100048.66
2023-05-18T04:10:12.361Z,100043.13
2023-05-18T04:12:39.742Z,100044.94
2023-05-18T04:15:07.244Z,100038.59
2023-05-18T04:17:35.808Z,100047.47
2023-05-18T04:20:13.347Z,100050.47
2023-05-18T04:22:46.875Z,100050.53
2023-05-18T04:25:14.831Z,100049.47
2023-05-18T04:27:42.470Z,100055.09
2023-05-18T04:30:11.789Z,100051.66
2023-05-18T04:32:39.061Z,100061.06
2023-05-18T04:35:07.312Z,100054.88
2023-05-18T04:37:34.551Z,100058.81
2023-05-18T04:40:02.623Z,100056.13
2023-05-18T04:42:29.525Z,100063.75
2023-05-18T04:44:56.304Z,100064.81
2023-05-18T04:47:24.282Z,100059.75
2023-05-18T04:49:52.687Z,100067.00
2023-05-18T04:52:20.064Z,100063.22
2023-05-18T04:54:46.887Z,100056.75
2023-05-18T04:57:14.023Z,100059.53
2023-05-18T04:59:41.721Z,100061.44
2023-05-18T05:02:08.588Z,100061.09
2023-05-18T05:04:35.500Z,100075.41
2023-05-18T05:07:02.208Z,100075.19
2023-05-18T05:09:32.105Z,100067.69
2023-05-18T05:11:58.835Z,100072.78
2023-05-18T05:14:25.552Z,100072.84
2023-05-18T05:16:52.625Z,100074.38
2023-05-18T05:19:19.772Z,100063.88
2023-05-18T05:21:46.617Z,100069.22
2023-05-18T05:24:13.508Z,100065.09
2023-05-18T05:26:40.688Z,100063.13
2023-05-18T05:29:07.551Z,100058.72
2023-05-18T05:31:34.998Z,100062.66
2023-05-18T05:34:02.085Z,100058.16
2023-05-18T05:36:29.260Z,100055.41
2023-05-18T05:38:56.314Z,100060.78
2023-05-18T05:41:23.472Z,100058.66
2023-05-18T05:43:50.220Z,100062.22
2023-05-18T05:46:17.956Z,100063.59
2023-05-18T05:48:44.804Z,100057.44
2023-05-18T05:51:12.326Z,100057.34
2023-05-18T05:53:39.075Z,100063.78
2023-05-18T05:56:08.174Z,100059.13
2023-05-18T05:58:34.974Z,100063.03
2023-05-18T06:01:02.099Z,100064.53
2023-05-18T06:03:29.629Z,100064.25
2023-05-18T06:05:56.944Z,100065.63
2023-05-18T06:08:24.617Z,100070.03
2023-05-18T06:10:51.636Z,100065.63
2023-05-18T06:13:18.662Z,100066.47
2023-05-18T06:15:45.351Z,100076.06
2023-05-18T06:18:13.580Z,100072.91
2023-05-18T06:20:40.905Z,100077.53
2023-05-18T06:23:07.626Z,100065.22
2023-05-18T06:25:35.608Z,100069.50
2023-05-18T06:28:02.366Z,100072.25
2023-05-18T06:30:29.166Z,100076.84
2023-05-18T06:32:56.143Z,100080.72
2023-05-18T06:35:24.295Z,100081.53
2023-05-18T06:37:51.231Z,100086.75
2023-05-18T06:40:18.153Z,100080.16
2023-05-18T06:42:44.957Z,100083.97
2023-05-18T06:45:12.325Z,100089.22
2023-05-18T06:47:39.228Z,100089.47
2023-05-18T06:50:06.725Z,100088.31
2023-05-18T06:52:33.745Z,100092.59
2023-05-18T06:55:01.603Z,100088.03
2023-05-18T06:57:28.659Z,100092.97
2023-05-18T06:59:55.503Z,100098.31
2023-05-18T07:02:22.542Z,100099.56
2023-05-18T07:04:49.874Z,100084.28
2023-05-18T07:07:20.517Z,100091.19
2023-05-18T07:09:50.055Z,100098.09
2023-05-18T07:12:16.788Z,100088.56
2023-05-18T07:14:43.604Z,100094.00
2023-05-18T07:17:10.384Z,100098.38
2023-05-18T07:19:37.270Z,100092.78
2023-05-18T07:22:04.895Z,100091.41
2023-05-18T07:24:31.869Z,100092.34
2023-05-18T07:27:00.761Z,100093.84
2023-05-18T07:29:27.987Z,100089.28
2023-05-18T07:31:54.875Z,100089.06
2023-05-18T07:34:21.924Z,100087.28
2023-05-18T07:36:48.750Z,100095.19
2023-05-18T07:39:19.488Z,100092.03
2023-05-18T07:41:47.604Z,100088.38
2023-05-18T07:44:14.820Z,100090.06
2023-05-18T07:46:42.325Z,100081.19
2023-05-18T07:49:09.122Z,100082.75
2023-05-18T07:51:35.955Z,100086.25
2023-05-18T07:54:02.936Z,100082.81
2023-05-18T07:56:29.747Z,100087.19
2023-05-18T07:58:56.558Z,100080.28
2023-05-18T08:01:27.599Z,100084.13
2023-05-18T08:03:54.919Z,100088.34
2023-05-18T08:06:21.772Z,100085.25
2023-05-18T08:08:48.781Z,100089.91
2023-05-18T08:11:15.576Z,100089.81
2023-05-18T08:13:42.542Z,100081.22
2023-05-18T08:16:12.158Z,100087.91
2023-05-18T08:18:39.672Z,100083.47
2023-05-18T08:21:09.347Z,100089.72
2023-05-18T08:23:36.975Z,100090.09
2023-05-18T08:26:03.852Z,100084.81
2023-05-18T08:28:31.350Z,100088.19
2023-05-18T08:30:58.461Z,100069.03
2023-05-18T08:33:26.247Z,100086.09
2023-05-18T08:35:54.420Z,100073.84
2023-05-18T08:38:21.302Z,100070.28
2023-05-18T08:40:59.952Z,100062.50
2023-05-18T08:43:33.829Z,100070.84
2023-05-18T08:46:33.777Z,100072.53
2023-05-18T08:49:02.497Z,100067.81
2023-05-18T08:51:32.147Z,100067.03
2023-05-18T08:53:59.389Z,100064.72
2023-05-18T08:56:29.346Z,100067.09
2023-05-18T08:58:56.933Z,100063.41
2023-05-18T09:01:30.315Z,100066.56
2023-05-18T09:03:58.385Z,100065.78
2023-05-18T09:06:25.206Z,100071.22
2023-05-18T09:08:53.576Z,100060.75
2023-05-18T09:11:21.865Z,100063.34
2023-05-18T09:13:51.849Z,100060.88
2023-05-18T09:16:21.666Z,100054.75
2023-05-18T09:18:48.541Z,100050.97
2023-05-18T09:21:15.555Z,100053.91
2023-05-18T09:23:44.492Z,100046.28
2023-05-18T09:26:12.975Z,100035.19
2023-05-18T09:28:42.096Z,100044.63
2023-05-18T09:31:12.884Z,100047.28
2023-05-18T09:33:40.585Z,100048.00
2023-05-18T09:36:08.605Z,100048.84
2023-05-18T09:38:39.694Z,100052.66
2023-05-18T09:41:15.286Z,100053.09
2023-05-18T09:43:44.003Z,100053.50
2023-05-18T09:46:12.479Z,100048.00
2023-05-18T09:48:45.469Z,100054.56
2023-05-18T09:51:19.101Z,100047.59
2023-05-18T09:53:49.694Z,100046.56
2023-05-18T09:56:17.934Z,100035.09
2023-05-18T09:58:45.930Z,100036.69
2023-05-18T10:01:12.812Z,100044.56
2023-05-18T10:03:39.908Z,100035.72
2023-05-18T10:06:08.405Z,100037.19
2023-05-18T10:08:36.266Z,100042.22
2023-05-18T10:11:04.077Z,100041.00
2023-05-18T10:13:32.166Z,100044.88
2023-05-18T10:16:00.763Z,100037.25
2023-05-18T10:18:29.588Z,100040.56
2023-05-18T10:21:00.363Z,100033.19
2023-05-18T10:23:29.832Z,100040.59
2023-05-18T10:25:57.540Z,100032.03
2023-05-18T10:28:28.924Z,100035.28
2023-05-18T10:30:57.780Z,100034.31
2023-05-18T10:33:29.656Z,100031.09
2023-05-18T10:35:57.506Z,100037.09
2023-05-18T10:38:26.735Z,100031.75
2023-05-18T10:40:56.558Z,100034.47
2023-05-18T10:43:28.166Z,100038.41
2023-05-18T10:45:57.446Z,100034.38
2023-05-18T10:48:25.952Z,100032.25
2023-05-18T10:50:54.130Z,100030.47
2023-05-18T10:53:32.405Z,100019.66
2023-05-18T10:55:59.648Z,100021.72
2023-05-18T10:58:27.594Z,100028.25
2023-05-18T11:00:56.654Z,100023.81
2023-05-18T11:03:25.992Z,100033.66
2023-05-18T11:06:11.155Z,100028.81
2023-05-18T11:08:49.491Z,100030.34
2023-05-18T11:11:18.957Z,100019.06
2023-05-18T11:13:49.013Z,100021.84
2023-05-18T11:16:17.017Z,100024.50
2023-05-18T11:18:52.194Z,100032.44
2023-05-18T11:21:42.949Z,100028.41
2023-05-18T11:24:18.790Z,100023.09
2023-05-18T11:26:47.904Z,100023.94
2023-05-18T11:29:40.845Z,100019.38
2023-05-18T11:32:29.949Z,100011.69
2023-05-18T11:34:56.967Z,100012.78
2023-05-18T11:38:06.889Z,100009.47
2023-05-18T11:40:50.124Z,100010.94
2023-05-18T11:43:26.603Z,100009.19
2023-05-18T11:45:57.305Z,100006.97
2023-05-18T11:48:27.728Z,100014.34
2023-05-18T11:50:57.878Z,100013.94
2023-05-18T11:53:26.164Z,100010.72
2023-05-18T11:55:59.749Z,99998.59
2023-05-18T11:58:26.789Z,99999.66
2023-05-18T12:00:54.692Z,100001.09
2023-05-18T12:03:27.646Z,100001.00
2023-05-18T12:05:58.396Z,100001.28
2023-05-18T12:08:29.801Z,100009.59
2023-05-18T12:10:57.692Z,99997.94
2023-05-18T12:13:24.623Z,99996.59
2023-05-18T12:15:52.339Z,99993.97
2023-05-18T12:18:19.431Z,99989.28
2023-05-18T12:20:48.201Z,99985.00
2023-05-18T12:23:14.960Z,99993.88
2023-05-18T12:25:41.723Z,99991.44
2023-05-18T12:28:08.567Z,99990.00
2023-05-18T12:30:36.313Z,99984.13
2023-05-18T12:33:03.733Z,99987.31
2023-05-18T12:35:31.522Z,99981.09
2023-05-18T12:38:03.137Z,99983.13
2023-05-18T12:40:44.893Z,99969.91
2023-05-18T12:43:11.817Z,99991.34
2023-05-18T12:45:38.736Z,99979.41
2023-05-18T12:48:07.125Z,99984.53
2023-05-18T12:50:35.126Z,99977.31
2023-05-18T12:53:02.081Z,99981.09
2023-05-18T12:55:31.340Z,99979.50
2023-05-18T12:58:03.391Z,99965.13
2023-05-18T13:00:34.073Z,99977.31
2023-05-18T13:03:08.894Z,99975.25
2023-05-18T13:05:37.477Z,99973.03
2023-05-18T13:08:04.382Z,99986.91
2023-05-18T13:10:35.171Z,99976.38
2023-05-18T13:13:04.056Z,99976.44
2023-05-18T13:15:36.006Z,99975.56
2023-05-18T13:18:10.740Z,99969.56
2023-05-18T13:20:50.003Z,99966.25
2023-05-18T13:23:21.932Z,99958.16
2023-05-18T13:25:49.219Z,99962.16
2023-05-18T13:28:17.561Z,99966.00
2023-05-18T13:30:45.392Z,99961.16
2023-05-18T13:33:12.550Z,99958.38
2023-05-18T13:35:44.739Z,99950.44
2023-05-18T13:38:13.522Z,99952.09
2023-05-18T13:40:41.450Z,99943.72
2023-05-18T13:43:09.488Z,99944.44
2023-05-18T13:45:37.846Z,99947.25
2023-05-18T13:48:10.111Z,99940.13
2023-05-18T13:50:38.032Z,99936.81
2023-05-18T13:53:05.178Z,99931.00
2023-05-18T13:55:33.695Z,99921.69
2023-05-18T13:58:01.178Z,99936.66
2023-05-18T14:00:28.372Z,99932.31
2023-05-18T14:02:55.486Z,99942.31
2023-05-18T14:05:22.605Z,99929.53
2023-05-18T14:07:49.369Z,99938.25
2023-05-18T14:10:16.089Z,99931.00
2023-05-18T14:12:42.967Z,99927.06
2023-05-18T14:15:10.747Z,99930.28
2023-05-18T14:17:38.508Z,99931.28
2023-05-18T14:20:06.374Z,99932.22
2023-05-18T14:22:33.384Z,99931.31
2023-05-18T14:25:01.133Z,99925.13
2023-05-18T14:27:28.515Z,99926.16
2023-05-18T14:29:55.579Z,99924.44
2023-05-18T14:32:22.524Z,99923.38
2023-05-18T14:34:52.195Z,99908.09
2023-05-18T14:37:19.235Z,99905.69
2023-05-18T14:39:46.046Z,99905.72
2023-05-18T14:42:12.788Z,99907.91
2023-05-18T14:44:39.595Z,99898.91
2023-05-18T14:47:06.729Z,99900.78
2023-05-18T14:49:33.729Z,99906.50
2023-05-18T14:52:00.506Z,99897.34
2023-05-18T14:54:27.278Z,99895.97
2023-05-18T14:56:54.260Z,99894.50
2023-05-18T14:59:21.704Z,99898.91
2023-05-18T15:01:48.631Z,99887.19
2023-05-18T15:04:15.478Z,99893.78
2023-05-18T15:06:42.269Z,99895.22
2023-05-18T15:09:10.186Z,99900.09
2023-05-18T15:11:36.895Z,99911.28
2023-05-18T15:14:03.710Z,99900.09
2023-05-18T15:16:30.529Z,99896.91
2023-05-18T15:18:57.502Z,99903.13
2023-05-18T15:21:24.328Z,99899.84
2023-05-18T15:23:51.212Z,99900.88
2023-05-18T15:26:18.087Z,99900.75
2023-05-18T15:28:45.270Z,99901.25
2023-05-18T15:31:12.147Z,99904.09
2023-05-18T15:33:42.744Z,99901.81
2023-05-18T15:36:09.961Z,99900.63
2023-05-18T15:38:36.880Z,99900.97
2023-05-18T15:41:03.671Z,99902.81
2023-05-18T15:43:30.984Z,99897.25
2023-05-18T15:45:58.908Z,99891.53
2023-05-18T15:48:26.052Z,99885.66
2023-05-18T15:50:52.865Z,99893.38
2023-05-18T15:53:19.735Z,99884.34
2023-05-18T15:55:46.764Z,99881.69
2023-05-18T15:58:13.749Z,99879.34
2023-05-18T16:00:40.512Z,99870.81
2023-05-18T16:03:07.795Z,99865.38
2023-05-18T16:05:34.577Z,99867.00
2023-05-18T16:08:01.650Z,99873.31
2023-05-18T16:10:28.453Z,99873.38
2023-05-18T16:12:55.257Z,99877.78
2023-05-18T16:15:25.043Z,99865.22
2023-05-18T16:17:51.839Z,99870.28
2023-05-18T16:20:18.812Z,99874.03
2023-05-18T16:22:47.044Z,99879.31
2023-05-18T16:25:13.840Z,99872.00
2023-05-18T16:27:40.604Z,99874.00
2023-05-18T16:30:08.298Z,99869.06
2023-05-18T16:32:35.034Z,99880.53
2023-05-18T16:35:03.371Z,99877.03
2023-05-18T16:37:31.144Z,99880.81
2023-05-18T16:39:57.846Z,99875.13
2023-05-18T16:42:24.679Z,99868.91
2023-05-18T16:44:51.388Z,99874.88
2023-05-18T16:47:18.134Z,99875.66
2023-05-18T16:49:45.669Z,99874.97
2023-05-18T16:52:12.503Z,99877.88
2023-05-18T16:54:39.224Z,99874.34
2023-05-18T16:57:06.473Z,99874.56
2023-05-18T16:59:34.586Z,99883.88
2023-05-18T17:02:01.737Z,99880.66
2023-05-18T17:04:28.644Z,99874.31
2023-05-18T17:06:55.433Z,99888.53
2023-05-18T17:09:22.225Z,99877.81
2023-05-18T17:11:49.052Z,99880.72
2023-05-18T17:14:15.714Z,99883.09
2023-05-18T17:16:42.732Z,99879.53
2023-05-18T17:19:09.757Z,99877.94
2023-05-18T17:21:36.603Z,99876.13
2023-05-18T17:24:03.446Z,99877.84
2023-05-18T17:26:33.862Z,99885.50
2023-05-18T17:29:00.671Z,99878.75
2023-05-18T17:31:27.516Z,99875.50
2023-05-18T17:33:54.873Z,99881.53
2023-05-18T17:36:21.604Z,99890.19
2023-05-18T17:38:48.726Z,99885.25
2023-05-18T17:41:15.888Z,99885.00
2023-05-18T17:43:42.979Z,99891.44
2023-05-18T17:46:09.739Z,99890.13
2023-05-18T17:48:36.407Z,99891.09
2023-05-18T17:51:03.744Z,99888.16
2023-05-18T17:53:31.346Z,99892.59
2023-05-18T17:55:58.275Z,99891.66
2023-05-18T17:58:25.105Z,99888.56
2023-05-18T18:00:51.845Z,99881.41
2023-05-18T18:03:20.707Z,99892.56
2023-05-18T18:05:47.516Z,99891.88
2023-05-18T18:08:16.483Z,99892.19
2023-05-18T18:10:43.350Z,99886.69
2023-05-18T18:13:10.104Z,99888.63
2023-05-18T18:15:36.896Z,99896.97
2023-05-18T18:18:03.843Z,99891.28
2023-05-18T18:20:35.914Z,99888.53
2023-05-18T18:23:03.503Z,99889.94
2023-05-18T18:25:30.814Z,99891.78
2023-05-18T18:27:58.315Z,99892.00
2023-05-18T18:30:25.508Z,99894.16
2023-05-18T18:32:52.695Z,99888.78
2023-05-18T18:35:19.654Z,99888.22
2023-05-18T18:37:47.685Z,99888.78
2023-05-18T18:40:18.255Z,99899.63
2023-05-18T18:42:45.095Z,99888.84
2023-05-18T18:45:12.180Z,99893.81
2023-05-18T18:47:39.442Z,99893.53
2023-05-18T18:50:07.572Z,99899.66
2023-05-18T18:52:34.309Z,99894.66
2023-05-18T18:55:01.480Z,99897.69
2023-05-18T18:57:28.344Z,99896.06
2023-05-18T18:59:55.027Z,99898.53
2023-05-18T19:02:22.762Z,99902.72
2023-05-18T19:04:49.548Z,99904.66
2023-05-18T19:07:16.319Z,99903.72
2023-05-18T19:09:43.089Z,99909.25
2023-05-18T19:12:10.454Z,99902.88
2023-05-18T19:14:37.156Z,99909.38
2023-05-18T19:17:04.031Z,99914.66
2023-05-18T19:19:32.984Z,99917.16
2023-05-18T19:21:59.796Z,99909.41
2023-05-18T19:24:26.532Z,99919.09
2023-05-18T19:26:53.216Z,99921.59
2023-05-18T19:29:20.950Z,99918.13
2023-05-18T19:31:47.789Z,99923.81
2023-05-18T19:34:14.556Z,99920.47
2023-05-18T19:36:41.229Z,99922.97
2023-05-18T19:39:07.943Z,99915.19
2023-05-18T19:41:35.513Z,99924.38
2023-05-18T19:44:02.693Z,99919.66
2023-05-18T19:46:29.534Z,99916.44
2023-05-18T19:48:56.681Z,99927.16
2023-05-18T19:51:24.053Z,99921.69
2023-05-18T19:53:50.824Z,99918.63
2023-05-18T19:56:17.708Z,99913.91
2023-05-18T19:58:44.516Z,99920.72
2023-05-18T20:01:11.312Z,99917.09
2023-05-18T20:03:40.181Z,99922.81
2023-05-18T20:06:09.139Z,99923.22
2023-05-18T20:08:35.845Z,99926.16
2023-05-18T20:11:02.605Z,99924.44
2023-05-18T20:13:30.469Z,99930.81
2023-05-18T20:16:00.763Z,99922.34
2023-05-18T20:18:29.050Z,99923.81
2023-05-18T20:20:56.557Z,99923.69
2023-05-18T20:23:23.610Z,99923.69
2023-05-18T20:25:50.501Z,99920.78
2023-05-18T20:28:17.840Z,99929.81
2023-05-18T20:30:44.667Z,99923.69
2023-05-18T20:33:12.733Z,99923.00
2023-05-18T20:35:39.654Z,99922.75
2023-05-18T20:38:07.574Z,99922.78
2023-05-18T20:40:38.188Z,99923.13
2023-05-18T20:43:06.322Z,99925.38
2023-05-18T20:45:33.166Z,99927.56
2023-05-18T20:48:00.436Z,99924.50
2023-05-18T20:50:27.472Z,99925.41
2023-05-18T20:52:54.720Z,99920.72
2023-05-18T20:55:21.733Z,99922.41
2023-05-18T20:57:51.602Z,99931.06
2023-05-18T21:00:18.702Z,99924.66
2023-05-18T21:02:47.124Z,99933.72
2023-05-18T21:05:14.715Z,99931.03
2023-05-18T21:07:41.547Z,99935.13
2023-05-18T21:10:09.090Z,99929.81
2023-05-18T21:12:35.899Z,99928.06
2023-05-18T21:15:03.152Z,99933.78
2023-05-18T21:17:30.955Z,99928.72
2023-05-18T21:19:57.733Z,99934.81
2023-05-18T21:22:24.564Z,99935.00
2023-05-18T21:24:51.357Z,99932.25
2023-05-18T21:27:18.056Z,99931.53
2023-05-18T21:29:44.774Z,99943.94
2023-05-18T21:32:11.710Z,99931.16
2023-05-18T21:34:39.574Z,99938.59
2023-05-18T21:37:08.307Z,99937.25
2023-05-18T21:39:35.195Z,99941.31
2023-05-18T21:42:02.871Z,99939.78
2023-05-18T21:44:29.660Z,99938.22
2023-05-18T21:46:58.130Z,99939.78
2023-05-18T21:49:25.006Z,99939.09
2023-05-18T21:51:51.916Z,99942.19
2023-05-18T21:54:18.619Z,99941.25
2023-05-18T21:56:45.401Z,99952.53
2023-05-18T21:59:12.218Z,99943.56
2023-05-18T22:01:38.953Z,99945.31
2023-05-18T22:04:05.715Z,99946.59
2023-05-18T22:06:32.554Z,99938.84
2023-05-18T22:08:59.264Z,99937.38
2023-05-18T22:11:25.969Z,99937.47
2023-05-18T22:13:52.643Z,99938.50
2023-05-18T22:16:19.591Z,99940.81
2023-05-18T22:18:46.304Z,99927.00
2023-05-18T22:21:13.039Z,99926.66
2023-05-18T22:23:39.864Z,99933.53
2023-05-18T22:26:07.307Z,99933.41
2023-05-18T22:28:34.160Z,99928.44
2023-05-18T22:31:01.484Z,99925.56
2023-05-18T22:33:28.425Z,99927.84
2023-05-18T22:35:55.075Z,99931.53
2023-05-18T22:38:21.831Z,99924.72
2023-05-18T22:40:54.153Z,99925.25
2023-05-18T22:43:21.559Z,99924.56
2023-05-18T22:45:48.882Z,99926.22
2023-05-18T22:48:15.702Z,99928.31
2023-05-18T22:50:42.673Z,99918.19
2023-05-18T22:53:10.628Z,99914.09
2023-05-18T22:55:37.650Z,99919.22
2023-05-18T22:58:04.500Z,99922.72
2023-05-18T23:00:31.614Z,99919.22
2023-05-18T23:02:59.019Z,99916.28
2023-05-18T23:05:26.965Z,99913.94
2023-05-18T23:07:53.767Z,99911.31
2023-05-18T23:10:20.476Z,99920.16
2023-05-18T23:12:48.565Z,99915.97
2023-05-18T23:15:15.697Z,99918.25
2023-05-18T23:17:42.559Z,99913.94
2023-05-18T23:20:11.657Z,99925.13
2023-05-18T23:22:38.420Z,99919.63
2023-05-18T23:25:08.959Z,99923.06
2023-05-18T23:27:36.210Z,99918.25
2023-05-18T23:30:03.495Z,99915.38
2023-05-18T23:32:30.840Z,99916.56
2023-05-18T23:34:58.824Z,99919.19
2023-05-18T23:37:26.470Z,99913.94
2023-05-18T23:39:53.578Z,99910.84
2023-05-18T23:42:20.844Z,99916.47
2023-05-18T23:44:48.514Z,99921.38
2023-05-18T23:47:16.295Z,99916.09
2023-05-18T23:49:44.159Z,99917.53
2023-05-18T23:52:11.600Z,99911.94
2023-05-18T23:54:38.897Z,99918.84
2023-05-18T23:57:05.995Z,99909.91
2023-05-18T23:59:33.009Z,99909.78
